createdAt,value
2023-01-20T00:00:28.884Z,98.23
2023-01-20T00:05:30.612Z,98.05
2023-01-20T00:10:33.639Z,98.04
2023-01-20T00:15:35.385Z,97.58
2023-01-20T00:20:37.106Z,97.42
2023-01-20T00:25:40.188Z,97.52
2023-01-20T00:30:41.988Z,97.69
2023-01-20T00:35:43.743Z,97.55
2023-01-20T00:40:52.936Z,97.83
2023-01-20T00:45:54.644Z,98.09
2023-01-20T00:50:56.350Z,98.54
2023-01-20T00:55:59.336Z,98.12
2023-01-20T01:01:01.202Z,97.74
2023-01-20T01:06:07.419Z,97.96
2023-01-20T01:11:10.599Z,98.33
2023-01-20T01:16:12.716Z,98.63
2023-01-20T01:21:15.587Z,98.54
2023-01-20T01:26:18.731Z,98.53
2023-01-20T01:31:22.039Z,98.33
2023-01-20T01:36:23.743Z,97.95
2023-01-20T01:41:26.865Z,97.23
2023-01-20T01:46:28.592Z,96.82
2023-01-20T01:51:31.664Z,97.04
2023-01-20T01:56:34.772Z,96.82
2023-01-20T02:01:37.067Z,96.67
2023-01-20T02:06:40.850Z,96.03
2023-01-20T02:11:48.389Z,95.56
2023-01-20T02:16:56.440Z,96.00
2023-01-20T02:22:19.063Z,95.72
2023-01-20T02:27:26.333Z,95.53
2023-01-20T02:32:35.282Z,95.40
2023-01-20T02:37:40.748Z,95.43
2023-01-20T02:42:44.665Z,95.17
2023-01-20T02:47:52.019Z,94.65
2023-01-20T02:52:54.846Z,94.59
2023-01-20T02:57:58.927Z,94.98
2023-01-20T03:03:02.596Z,95.70
2023-01-20T03:08:06.501Z,95.83
2023-01-20T03:13:12.102Z,95.36
2023-01-20T03:18:15.129Z,95.86
2023-01-20T03:23:16.796Z,96.60
2023-01-20T03:28:18.476Z,97.11
2023-01-20T03:33:21.495Z,97.36
2023-01-20T03:38:23.217Z,96.75
2023-01-20T03:43:28.211Z,96.02
2023-01-20T03:48:35.875Z,95.88
2023-01-20T03:53:45.265Z,95.32
2023-01-20T03:58:48.413Z,95.26
2023-01-20T04:03:52.731Z,95.22
2023-01-20T04:08:56.775Z,95.03
2023-01-20T04:13:58.783Z,94.95
2023-01-20T04:19:01.789Z,94.77
2023-01-20T04:24:05.188Z,94.43
2023-01-20T04:29:10.563Z,94.54
2023-01-20T04:34:17.667Z,94.68
2023-01-20T04:39:19.461Z,94.55
2023-01-20T04:44:23.063Z,94.60
2023-01-20T04:49:26.174Z,94.94
2023-01-20T04:54:27.834Z,94.62
2023-01-20T04:59:29.575Z,94.80
2023-01-20T05:04:32.610Z,94.36
2023-01-20T05:09:34.365Z,94.37
2023-01-20T05:14:36.116Z,94.46
2023-01-20T05:19:40.813Z,94.92
2023-01-20T05:24:42.654Z,94.69
2023-01-20T05:29:44.420Z,94.58
2023-01-20T05:34:47.474Z,94.78
2023-01-20T05:39:49.203Z,95.13
2023-01-20T05:44:50.868Z,94.70
2023-01-20T05:49:53.788Z,94.91
2023-01-20T05:54:55.472Z,95.20
2023-01-20T05:59:57.157Z,94.63
2023-01-20T06:05:02.890Z,94.28
2023-01-20T06:10:05.285Z,93.41
2023-01-20T06:15:07.670Z,93.62
2023-01-20T06:20:11.968Z,93.25
2023-01-20T06:25:13.926Z,93.48
2023-01-20T06:30:16.728Z,93.86
2023-01-20T06:35:19.762Z,94.57
2023-01-20T06:40:21.568Z,94.44
2023-01-20T06:45:24.361Z,94.51
2023-01-20T06:50:27.414Z,94.75
2023-01-20T06:55:29.096Z,94.99
2023-01-20T07:00:30.943Z,94.23
2023-01-20T07:05:33.974Z,94.37
2023-01-20T07:10:36.108Z,93.54
2023-01-20T07:15:37.789Z,93.55
2023-01-20T07:20:40.783Z,91.60
2023-01-20T07:25:42.523Z,91.44
2023-01-20T07:30:44.223Z,91.51
2023-01-20T07:35:51.116Z,92.19
2023-01-20T07:40:52.840Z,92.08
2023-01-20T07:45:55.422Z,92.57
2023-01-20T07:51:02.660Z,92.70
2023-01-20T07:56:05.398Z,92.90
2023-01-20T08:01:08.217Z,94.06
2023-01-20T08:06:12.745Z,94.43
2023-01-20T08:11:15.543Z,93.95
2023-01-20T08:16:17.969Z,93.77
2023-01-20T08:21:21.665Z,93.77
2023-01-20T08:26:25.025Z,93.25
2023-01-20T08:31:27.011Z,92.20
2023-01-20T08:36:30.868Z,90.86
2023-01-20T08:41:33.604Z,91.13
2023-01-20T08:46:35.350Z,91.28
2023-01-20T08:51:38.474Z,90.21
2023-01-20T08:56:40.190Z,88.91
2023-01-20T09:01:43.644Z,81.84
2023-01-20T09:06:48.413Z,75.20
2023-01-20T09:11:52.949Z,70.13
2023-01-20T09:16:54.632Z,55.49
2023-01-20T09:21:57.772Z,46.61
2023-01-20T09:26:59.707Z,43.71
2023-01-20T09:32:01.508Z,40.63
2023-01-20T09:37:23.036Z,37.19
2023-01-20T09:42:47.103Z,36.24
2023-01-20T09:47:48.823Z,35.27
2023-01-20T09:53:05.037Z,36.71
2023-01-20T09:58:13.618Z,36.45
2023-01-20T10:03:17.534Z,35.14
2023-01-20T10:08:21.600Z,35.15
2023-01-20T10:13:25.192Z,34.00
2023-01-20T10:18:28.879Z,33.66
2023-01-20T10:23:33.783Z,33.18
2023-01-20T10:28:37.081Z,33.07
2023-01-20T10:33:39.782Z,37.44
2023-01-20T10:38:53.988Z,41.46
2023-01-20T10:43:55.950Z,45.83
2023-01-20T10:49:06.562Z,49.47
2023-01-20T10:54:14.477Z,52.45
2023-01-20T10:59:17.430Z,53.82
2023-01-20T11:04:20.183Z,56.12
2023-01-20T11:09:27.505Z,58.50
2023-01-20T11:14:29.182Z,59.35
2023-01-20T11:19:44.579Z,60.74
2023-01-20T11:24:47.601Z,63.39
2023-01-20T11:29:50.018Z,64.10
2023-01-20T11:34:51.681Z,65.21
2023-01-20T11:40:00.519Z,65.38
2023-01-20T11:45:20.105Z,66.29
2023-01-20T11:50:28.481Z,65.76
2023-01-20T11:55:31.509Z,65.44
2023-01-20T12:00:37.391Z,65.30
2023-01-20T12:05:39.676Z,65.44
2023-01-20T12:10:42.681Z,65.11
2023-01-20T12:15:45.346Z,65.13
2023-01-20T12:20:56.153Z,63.99
2023-01-20T12:26:00.994Z,63.63
2023-01-20T12:31:02.879Z,63.30
2023-01-20T12:36:14.768Z,62.51
2023-01-20T12:41:25.736Z,62.42
2023-01-20T12:46:34.186Z,62.08
2023-01-20T12:51:42.134Z,61.86
2023-01-20T12:56:48.418Z,62.64
2023-01-20T13:01:59.380Z,63.39
2023-01-20T13:07:14.424Z,64.04
2023-01-20T13:12:44.660Z,65.71
2023-01-20T13:17:56.506Z,67.30
2023-01-20T13:22:59.383Z,66.33
2023-01-20T13:28:02.506Z,66.86
2023-01-20T13:33:07.065Z,67.05
2023-01-20T13:38:18.703Z,67.74
2023-01-20T13:43:36.287Z,68.46
2023-01-20T13:48:38.462Z,69.24
2023-01-20T13:53:40.118Z,70.11
2023-01-20T13:58:45.718Z,71.08
2023-01-20T14:04:01.628Z,71.69
2023-01-20T14:09:03.361Z,71.33
2023-01-20T14:14:06.399Z,70.88
2023-01-20T14:19:18.009Z,70.58
2023-01-20T14:24:26.684Z,70.25
2023-01-20T14:29:29.694Z,70.07
2023-01-20T14:34:34.893Z,70.03
2023-01-20T14:39:36.561Z,70.74
2023-01-20T14:44:41.293Z,70.97
2023-01-20T14:49:43.516Z,72.23
2023-01-20T14:54:45.599Z,72.61
2023-01-20T14:59:58.849Z,73.47
2023-01-20T15:05:00.626Z,74.08
2023-01-20T15:10:08.337Z,73.94
2023-01-20T15:15:18.957Z,75.35
2023-01-20T15:20:28.264Z,76.12
2023-01-20T15:25:29.928Z,76.48
2023-01-20T15:30:32.930Z,76.82
2023-01-20T15:35:34.637Z,78.44
2023-01-20T15:40:39.738Z,78.82
2023-01-20T15:45:42.788Z,80.68
2023-01-20T15:50:44.721Z,81.32
2023-01-20T15:55:47.623Z,81.73
2023-01-20T16:00:50.712Z,82.46
2023-01-20T16:05:53.675Z,84.17
2023-01-20T16:10:55.377Z,85.14
2023-01-20T16:15:58.550Z,85.48
2023-01-20T16:21:00.296Z,85.09
2023-01-20T16:26:01.998Z,85.57
2023-01-20T16:31:05.431Z,85.70
2023-01-20T16:36:10.686Z,86.75
2023-01-20T16:41:14.337Z,88.27
2023-01-20T16:46:18.525Z,89.28
2023-01-20T16:51:21.049Z,88.50
2023-01-20T16:56:23.497Z,88.55
2023-01-20T17:01:26.692Z,89.72
2023-01-20T17:06:29.043Z,89.32
2023-01-20T17:11:31.424Z,87.63
2023-01-20T17:16:34.536Z,87.45
2023-01-20T17:21:37.681Z,87.64
2023-01-20T17:26:39.426Z,89.34
2023-01-20T17:31:42.931Z,90.52
2023-01-20T17:36:44.715Z,90.98
2023-01-20T17:41:46.375Z,91.40
2023-01-20T17:46:50.329Z,91.22
2023-01-20T17:51:51.979Z,90.34
2023-01-20T17:56:53.647Z,91.84
2023-01-20T18:01:56.839Z,91.20
2023-01-20T18:06:59.593Z,92.78
2023-01-20T18:12:01.541Z,92.52
2023-01-20T18:17:04.668Z,91.54
2023-01-20T18:22:08.483Z,90.99
2023-01-20T18:27:10.166Z,90.14
2023-01-20T18:32:13.185Z,91.17
2023-01-20T18:37:14.822Z,91.39
2023-01-20T18:42:16.496Z,91.67
2023-01-20T18:47:19.532Z,92.41
2023-01-20T18:52:21.220Z,91.62
2023-01-20T18:57:22.851Z,90.42
2023-01-20T19:02:26.823Z,90.43
2023-01-20T19:07:28.548Z,89.88
2023-01-20T19:12:30.317Z,89.18
2023-01-20T19:17:33.458Z,89.24
2023-01-20T19:22:35.174Z,89.55
2023-01-20T19:27:36.853Z,89.59
2023-01-20T19:32:42.128Z,90.67
2023-01-20T19:37:43.932Z,91.86
2023-01-20T19:42:48.751Z,91.36
2023-01-20T19:47:51.812Z,90.65
2023-01-20T19:52:53.484Z,91.77
2023-01-20T19:57:55.190Z,91.96
2023-01-20T20:02:58.297Z,91.66
2023-01-20T20:08:00.060Z,91.08
2023-01-20T20:13:01.767Z,90.62
2023-01-20T20:18:06.421Z,89.58
2023-01-20T20:23:08.117Z,89.22
2023-01-20T20:28:09.820Z,88.45
2023-01-20T20:33:12.946Z,87.93
2023-01-20T20:38:14.676Z,88.47
2023-01-20T20:43:16.449Z,88.88
2023-01-20T20:48:19.618Z,88.57
2023-01-20T20:53:21.410Z,88.68
2023-01-20T20:58:23.320Z,89.02
2023-01-20T21:03:27.702Z,89.42
2023-01-20T21:08:29.556Z,89.78
2023-01-20T21:13:31.379Z,90.65
2023-01-20T21:18:34.446Z,91.07
2023-01-20T21:23:36.168Z,91.50
2023-01-20T21:28:39.105Z,90.93
2023-01-20T21:33:42.771Z,90.28
2023-01-20T21:38:47.315Z,91.54
2023-01-20T21:44:07.711Z,90.35
2023-01-20T21:49:29.191Z,89.08
2023-01-20T21:54:31.427Z,88.52
2023-01-20T21:59:33.114Z,87.94
2023-01-20T22:04:36.212Z,88.00
2023-01-20T22:09:37.937Z,88.44
2023-01-20T22:14:39.730Z,87.05
2023-01-20T22:19:43.821Z,88.04
2023-01-20T22:24:45.682Z,89.63
2023-01-20T22:29:47.522Z,88.57
2023-01-20T22:34:50.631Z,88.38
2023-01-20T22:39:52.353Z,89.22
2023-01-20T22:44:54.039Z,88.42
2023-01-20T22:49:57.106Z,88.86
2023-01-20T22:54:58.787Z,88.79
2023-01-20T23:00:00.508Z,89.09
2023-01-20T23:05:03.952Z,88.99
2023-01-20T23:10:06.871Z,88.25
2023-01-20T23:15:09.273Z,88.44
2023-01-20T23:20:13.050Z,88.95
2023-01-20T23:25:14.977Z,89.04
2023-01-20T23:30:17.574Z,90.07
2023-01-20T23:35:21.060Z,89.91
2023-01-20T23:40:22.982Z,89.88
2023-01-20T23:45:24.818Z,91.30
2023-01-20T23:50:27.835Z,91.92
2023-01-20T23:55:29.521Z,91.08
